Terminal Aerodrome Forecast
Issued by NWS Raleigh/Durham, NC

Home | Current Version | Previous Version | Text Only | Print | Product List | Glossary On
Versions: 1 2 3 4 5 6 7 8 9 10 11 12 13 14 15 16 17 18 19 20 21 22 23 24 25 26 27 28
000
FTUS42 KRAH 051759 AAA
TAFGSO
TAF AMD
KGSO 051759Z 0518/0618 34010G18KT 6SM -RA FEW009 SCT025 OVC050
     FM052300 33008KT 4SM -SHRA BKN015 OVC025
     FM060600 34006KT 2SM -SHRA BR SCT005 OVC012
     FM061600 35010G17KT P6SM SCT015 BKN040=

USA.gov is the U.S. government's official web portal to all federal, state and local government web resources and services.